sensor_id;sensor_type;location;lat;lon;timestamp;temperature;humidity
16635;DHT22;8431;52.458;9.998;2023-03-14T00:01:09;9.10;99.90
16635;DHT22;8431;52.458;9.998;2023-03-14T00:03:37;9.10;99.90
16635;DHT22;8431;52.458;9.998;2023-03-14T00:06:05;9.20;99.90
16635;DHT22;8431;52.458;9.998;2023-03-14T00:08:32;9.10;99.90
16635;DHT22;8431;52.458;9.998;2023-03-14T00:11:04;9.10;99.90
16635;DHT22;8431;52.458;9.998;2023-03-14T00:13:31;9.00;99.90
16635;DHT22;8431;52.458;9.998;2023-03-14T00:16:02;9.20;99.90
16635;DHT22;8431;52.458;9.998;2023-03-14T00:18:29;9.20;99.90
16635;DHT22;8431;52.458;9.998;2023-03-14T00:20:59;9.30;99.90
16635;DHT22;8431;52.458;9.998;2023-03-14T00:23:27;9.30;99.90
16635;DHT22;8431;52.458;9.998;2023-03-14T00:25:57;9.40;99.90
16635;DHT22;8431;52.458;9.998;2023-03-14T00:28:26;9.50;99.90
16635;DHT22;8431;52.458;9.998;2023-03-14T00:30:53;9.80;99.90
16635;DHT22;8431;52.458;9.998;2023-03-14T00:33:20;9.80;99.90
16635;DHT22;8431;52.458;9.998;2023-03-14T00:35:53;10.00;99.90
16635;DHT22;8431;52.458;9.998;2023-03-14T00:38:21;10.00;99.90
16635;DHT22;8431;52.458;9.998;2023-03-14T00:40:50;10.10;99.90
16635;DHT22;8431;52.458;9.998;2023-03-14T00:43:17;10.20;99.90
16635;DHT22;8431;52.458;9.998;2023-03-14T00:45:44;10.30;99.90
16635;DHT22;8431;52.458;9.998;2023-03-14T00:48:11;10.30;99.90
16635;DHT22;8431;52.458;9.998;2023-03-14T00:50:38;10.20;99.90
16635;DHT22;8431;52.458;9.998;2023-03-14T00:53:05;10.30;99.90
16635;DHT22;8431;52.458;9.998;2023-03-14T00:55:37;10.30;99.90
16635;DHT22;8431;52.458;9.998;2023-03-14T00:58:05;10.40;99.90
16635;DHT22;8431;52.458;9.998;2023-03-14T01:00:32;10.40;99.90
16635;DHT22;8431;52.458;9.998;2023-03-14T01:02:59;10.30;99.90
16635;DHT22;8431;52.458;9.998;2023-03-14T01:05:27;10.30;99.90
16635;DHT22;8431;52.458;9.998;2023-03-14T01:07:54;10.30;99.90
16635;DHT22;8431;52.458;9.998;2023-03-14T01:10:21;10.40;99.90
16635;DHT22;8431;52.458;9.998;2023-03-14T01:12:50;10.30;99.90
16635;DHT22;8431;52.458;9.998;2023-03-14T01:15:17;10.50;99.90
16635;DHT22;8431;52.458;9.998;2023-03-14T01:17:44;10.40;99.90
16635;DHT22;8431;52.458;9.998;2023-03-14T01:20:13;10.30;99.90
16635;DHT22;8431;52.458;9.998;2023-03-14T01:22:40;10.20;99.90
16635;DHT22;8431;52.458;9.998;2023-03-14T01:25:09;10.20;99.90
16635;DHT22;8431;52.458;9.998;2023-03-14T01:27:37;10.30;99.90
16635;DHT22;8431;52.458;9.998;2023-03-14T01:30:10;10.30;99.90
16635;DHT22;8431;52.458;9.998;2023-03-14T01:32:38;10.40;99.90
16635;DHT22;8431;52.458;9.998;2023-03-14T01:35:06;10.30;99.90
16635;DHT22;8431;52.458;9.998;2023-03-14T01:37:33;10.30;99.90
16635;DHT22;8431;52.458;9.998;2023-03-14T01:40:00;10.40;99.90
16635;DHT22;8431;52.458;9.998;2023-03-14T01:42:27;10.50;99.90
16635;DHT22;8431;52.458;9.998;2023-03-14T01:44:58;10.50;99.90
16635;DHT22;8431;52.458;9.998;2023-03-14T01:47:27;10.50;99.90
16635;DHT22;8431;52.458;9.998;2023-03-14T01:49:57;10.40;99.90
16635;DHT22;8431;52.458;9.998;2023-03-14T01:52:28;10.60;99.90
16635;DHT22;8431;52.458;9.998;2023-03-14T01:55:02;10.80;99.90
16635;DHT22;8431;52.458;9.998;2023-03-14T01:57:33;10.90;99.90
16635;DHT22;8431;52.458;9.998;2023-03-14T02:00:05;11.00;99.90
16635;DHT22;8431;52.458;9.998;2023-03-14T02:02:40;11.00;99.90
16635;DHT22;8431;52.458;9.998;2023-03-14T02:05:09;10.90;99.90
16635;DHT22;8431;52.458;9.998;2023-03-14T02:07:39;10.70;99.90
16635;DHT22;8431;52.458;9.998;2023-03-14T02:10:08;10.80;99.90
16635;DHT22;8431;52.458;9.998;2023-03-14T02:12:36;10.80;99.90
16635;DHT22;8431;52.458;9.998;2023-03-14T02:15:06;10.90;99.90
16635;DHT22;8431;52.458;9.998;2023-03-14T02:17:34;11.00;99.90
16635;DHT22;8431;52.458;9.998;2023-03-14T02:20:26;11.00;99.90
16635;DHT22;8431;52.458;9.998;2023-03-14T02:22:54;11.00;99.90
16635;DHT22;8431;52.458;9.998;2023-03-14T02:25:26;11.20;99.90
16635;DHT22;8431;52.458;9.998;2023-03-14T02:27:57;11.30;99.90
16635;DHT22;8431;52.458;9.998;2023-03-14T02:30:27;11.20;99.90
16635;DHT22;8431;52.458;9.998;2023-03-14T02:32:56;11.30;99.90
16635;DHT22;8431;52.458;9.998;2023-03-14T02:35:28;11.40;99.90
16635;DHT22;8431;52.458;9.998;2023-03-14T02:37:59;11.40;99.90
16635;DHT22;8431;52.458;9.998;2023-03-14T02:40:27;11.40;99.90
16635;DHT22;8431;52.458;9.998;2023-03-14T02:42:54;11.40;99.90
16635;DHT22;8431;52.458;9.998;2023-03-14T02:45:42;11.30;99.90
16635;DHT22;8431;52.458;9.998;2023-03-14T02:48:14;11.40;99.90
16635;DHT22;8431;52.458;9.998;2023-03-14T02:50:42;11.40;99.90
16635;DHT22;8431;52.458;9.998;2023-03-14T02:53:12;11.40;99.90
16635;DHT22;8431;52.458;9.998;2023-03-14T02:55:40;11.40;99.90
16635;DHT22;8431;52.458;9.998;2023-03-14T02:58:10;11.40;99.90
16635;DHT22;8431;52.458;9.998;2023-03-14T03:00:38;11.40;99.90
16635;DHT22;8431;52.458;9.998;2023-03-14T03:03:06;11.40;99.90
16635;DHT22;8431;52.458;9.998;2023-03-14T03:05:33;11.40;99.90
16635;DHT22;8431;52.458;9.998;2023-03-14T03:08:00;11.30;99.90
16635;DHT22;8431;52.458;9.998;2023-03-14T03:10:27;11.30;99.90
16635;DHT22;8431;52.458;9.998;2023-03-14T03:12:55;11.20;99.90
16635;DHT22;8431;52.458;9.998;2023-03-14T03:15:22;11.10;99.90
16635;DHT22;8431;52.458;9.998;2023-03-14T03:17:49;11.10;99.90
16635;DHT22;8431;52.458;9.998;2023-03-14T03:20:18;11.10;99.90
16635;DHT22;8431;52.458;9.998;2023-03-14T03:22:45;11.00;99.90
16635;DHT22;8431;52.458;9.998;2023-03-14T03:25:11;11.00;99.90
16635;DHT22;8431;52.458;9.998;2023-03-14T03:27:38;11.00;99.90
16635;DHT22;8431;52.458;9.998;2023-03-14T03:30:07;11.00;99.90
16635;DHT22;8431;52.458;9.998;2023-03-14T03:32:34;11.00;99.90
16635;DHT22;8431;52.458;9.998;2023-03-14T03:35:02;10.90;99.90
16635;DHT22;8431;52.458;9.998;2023-03-14T03:37:32;11.00;99.90
16635;DHT22;8431;52.458;9.998;2023-03-14T03:39:59;11.10;99.90
16635;DHT22;8431;52.458;9.998;2023-03-14T03:42:30;11.00;99.90
16635;DHT22;8431;52.458;9.998;2023-03-14T03:44:57;10.90;99.90
16635;DHT22;8431;52.458;9.998;2023-03-14T03:47:24;10.90;99.90
16635;DHT22;8431;52.458;9.998;2023-03-14T03:49:51;10.90;99.90
16635;DHT22;8431;52.458;9.998;2023-03-14T03:52:18;11.00;99.90
16635;DHT22;8431;52.458;9.998;2023-03-14T03:54:47;11.00;99.90
16635;DHT22;8431;52.458;9.998;2023-03-14T03:57:14;11.00;99.90
16635;DHT22;8431;52.458;9.998;2023-03-14T03:59:41;11.00;99.90
16635;DHT22;8431;52.458;9.998;2023-03-14T04:02:08;11.00;99.90
16635;DHT22;8431;52.458;9.998;2023-03-14T04:04:35;10.90;99.90
16635;DHT22;8431;52.458;9.998;2023-03-14T04:07:03;10.80;99.90
16635;DHT22;8431;52.458;9.998;2023-03-14T04:09:30;10.60;99.90
16635;DHT22;8431;52.458;9.998;2023-03-14T04:11:58;10.40;99.90
16635;DHT22;8431;52.458;9.998;2023-03-14T04:14:25;10.20;99.90
16635;DHT22;8431;52.458;9.998;2023-03-14T04:16:52;10.10;99.90
16635;DHT22;8431;52.458;9.998;2023-03-14T04:19:20;9.90;99.90
16635;DHT22;8431;52.458;9.998;2023-03-14T04:21:47;9.90;99.90
16635;DHT22;8431;52.458;9.998;2023-03-14T04:24:14;9.80;99.90
16635;DHT22;8431;52.458;9.998;2023-03-14T04:26:41;9.70;99.90
16635;DHT22;8431;52.458;9.998;2023-03-14T04:29:09;9.60;99.90
16635;DHT22;8431;52.458;9.998;2023-03-14T04:31:36;9.50;99.90
16635;DHT22;8431;52.458;9.998;2023-03-14T04:34:03;9.40;99.90
16635;DHT22;8431;52.458;9.998;2023-03-14T04:36:30;9.40;99.90
16635;DHT22;8431;52.458;9.998;2023-03-14T04:38:57;9.30;99.90
16635;DHT22;8431;52.458;9.998;2023-03-14T04:41:24;9.10;99.90
16635;DHT22;8431;52.458;9.998;2023-03-14T04:43:51;9.10;99.90
16635;DHT22;8431;52.458;9.998;2023-03-14T04:46:20;9.10;99.90
16635;DHT22;8431;52.458;9.998;2023-03-14T04:48:47;9.00;99.90
16635;DHT22;8431;52.458;9.998;2023-03-14T04:51:14;9.00;99.90
16635;DHT22;8431;52.458;9.998;2023-03-14T04:53:40;8.90;99.90
16635;DHT22;8431;52.458;9.998;2023-03-14T04:56:08;8.90;99.90
16635;DHT22;8431;52.458;9.998;2023-03-14T04:58:36;8.90;99.90
16635;DHT22;8431;52.458;9.998;2023-03-14T05:01:03;8.90;99.90
16635;DHT22;8431;52.458;9.998;2023-03-14T05:03:32;8.90;99.90
16635;DHT22;8431;52.458;9.998;2023-03-14T05:05:58;8.90;99.90
16635;DHT22;8431;52.458;9.998;2023-03-14T05:08:26;9.00;99.90
16635;DHT22;8431;52.458;9.998;2023-03-14T05:10:53;9.00;99.90
16635;DHT22;8431;52.458;9.998;2023-03-14T05:13:21;9.00;99.90
16635;DHT22;8431;52.458;9.998;2023-03-14T05:15:51;9.00;99.90
16635;DHT22;8431;52.458;9.998;2023-03-14T05:18:18;8.90;99.90
16635;DHT22;8431;52.458;9.998;2023-03-14T05:20:50;8.80;99.90
16635;DHT22;8431;52.458;9.998;2023-03-14T05:23:17;8.80;99.90
16635;DHT22;8431;52.458;9.998;2023-03-14T05:25:44;8.80;99.90
16635;DHT22;8431;52.458;9.998;2023-03-14T05:28:11;8.80;99.90
16635;DHT22;8431;52.458;9.998;2023-03-14T05:30:38;8.80;99.90
16635;DHT22;8431;52.458;9.998;2023-03-14T05:33:05;8.80;99.90
16635;DHT22;8431;52.458;9.998;2023-03-14T05:35:32;8.90;99.90
16635;DHT22;8431;52.458;9.998;2023-03-14T05:38:00;8.80;99.90
16635;DHT22;8431;52.458;9.998;2023-03-14T05:40:27;8.70;99.90
16635;DHT22;8431;52.458;9.998;2023-03-14T05:42:54;8.70;99.90
16635;DHT22;8431;52.458;9.998;2023-03-14T05:45:21;8.70;99.90
16635;DHT22;8431;52.458;9.998;2023-03-14T05:47:48;8.70;99.90
16635;DHT22;8431;52.458;9.998;2023-03-14T05:50:15;8.80;99.90
16635;DHT22;8431;52.458;9.998;2023-03-14T05:52:42;8.80;99.90
16635;DHT22;8431;52.458;9.998;2023-03-14T05:55:13;8.90;99.90
16635;DHT22;8431;52.458;9.998;2023-03-14T05:57:43;8.80;99.90
16635;DHT22;8431;52.458;9.998;2023-03-14T06:00:11;8.90;99.90
16635;DHT22;8431;52.458;9.998;2023-03-14T06:02:38;9.00;99.90
16635;DHT22;8431;52.458;9.998;2023-03-14T06:05:06;8.90;99.90
16635;DHT22;8431;52.458;9.998;2023-03-14T06:07:33;8.80;99.90
16635;DHT22;8431;52.458;9.998;2023-03-14T06:10:07;8.90;99.90
16635;DHT22;8431;52.458;9.998;2023-03-14T06:12:35;9.00;99.90
16635;DHT22;8431;52.458;9.998;2023-03-14T06:15:03;8.90;99.90
16635;DHT22;8431;52.458;9.998;2023-03-14T06:17:30;8.90;99.90
16635;DHT22;8431;52.458;9.998;2023-03-14T06:19:57;8.90;99.90
16635;DHT22;8431;52.458;9.998;2023-03-14T06:22:24;8.90;99.90
16635;DHT22;8431;52.458;9.998;2023-03-14T06:24:51;9.00;99.90
16635;DHT22;8431;52.458;9.998;2023-03-14T06:27:18;9.10;99.90
16635;DHT22;8431;52.458;9.998;2023-03-14T06:29:46;9.20;99.90
16635;DHT22;8431;52.458;9.998;2023-03-14T06:32:13;9.20;99.90
16635;DHT22;8431;52.458;9.998;2023-03-14T06:34:40;9.20;99.90
16635;DHT22;8431;52.458;9.998;2023-03-14T06:37:07;9.30;99.90
16635;DHT22;8431;52.458;9.998;2023-03-14T06:39:34;9.40;99.90
16635;DHT22;8431;52.458;9.998;2023-03-14T06:42:01;9.60;99.90
16635;DHT22;8431;52.458;9.998;2023-03-14T06:44:28;9.60;99.90
16635;DHT22;8431;52.458;9.998;2023-03-14T06:46:56;9.70;99.90
16635;DHT22;8431;52.458;9.998;2023-03-14T06:49:24;9.80;99.90
16635;DHT22;8431;52.458;9.998;2023-03-14T06:51:51;9.80;99.90
16635;DHT22;8431;52.458;9.998;2023-03-14T06:54:18;9.90;99.90
16635;DHT22;8431;52.458;9.998;2023-03-14T06:56:45;10.00;99.90
16635;DHT22;8431;52.458;9.998;2023-03-14T06:59:12;10.00;99.90
16635;DHT22;8431;52.458;9.998;2023-03-14T07:01:39;10.10;99.90
16635;DHT22;8431;52.458;9.998;2023-03-14T07:04:08;10.20;99.90
16635;DHT22;8431;52.458;9.998;2023-03-14T07:06:36;10.30;99.90
16635;DHT22;8431;52.458;9.998;2023-03-14T07:09:05;10.30;99.90
16635;DHT22;8431;52.458;9.998;2023-03-14T07:11:32;10.40;99.90
16635;DHT22;8431;52.458;9.998;2023-03-14T07:13:59;10.40;99.90
16635;DHT22;8431;52.458;9.998;2023-03-14T07:16:26;10.40;99.90
16635;DHT22;8431;52.458;9.998;2023-03-14T07:18:54;10.50;99.90
16635;DHT22;8431;52.458;9.998;2023-03-14T07:21:23;10.50;99.90
16635;DHT22;8431;52.458;9.998;2023-03-14T07:23:50;10.60;99.90
16635;DHT22;8431;52.458;9.998;2023-03-14T07:26:17;10.70;99.90
16635;DHT22;8431;52.458;9.998;2023-03-14T07:28:44;10.60;99.90
16635;DHT22;8431;52.458;9.998;2023-03-14T07:31:11;10.40;99.90
16635;DHT22;8431;52.458;9.998;2023-03-14T07:33:38;10.40;99.90
16635;DHT22;8431;52.458;9.998;2023-03-14T07:36:05;10.30;99.90
16635;DHT22;8431;52.458;9.998;2023-03-14T07:38:34;10.30;99.90
16635;DHT22;8431;52.458;9.998;2023-03-14T07:41:01;10.40;99.90
16635;DHT22;8431;52.458;9.998;2023-03-14T07:43:28;10.40;99.90
16635;DHT22;8431;52.458;9.998;2023-03-14T07:45:55;10.40;99.90
16635;DHT22;8431;52.458;9.998;2023-03-14T07:48:22;10.40;99.90
16635;DHT22;8431;52.458;9.998;2023-03-14T07:50:51;10.40;99.90
16635;DHT22;8431;52.458;9.998;2023-03-14T07:53:18;10.40;99.90
16635;DHT22;8431;52.458;9.998;2023-03-14T07:55:46;10.40;99.90
16635;DHT22;8431;52.458;9.998;2023-03-14T07:58:14;10.40;99.90
16635;DHT22;8431;52.458;9.998;2023-03-14T08:00:41;10.40;99.90
16635;DHT22;8431;52.458;9.998;2023-03-14T08:03:08;10.40;99.90
16635;DHT22;8431;52.458;9.998;2023-03-14T08:05:35;10.30;99.90
16635;DHT22;8431;52.458;9.998;2023-03-14T08:08:03;10.20;99.90
16635;DHT22;8431;52.458;9.998;2023-03-14T08:10:31;10.20;99.90
16635;DHT22;8431;52.458;9.998;2023-03-14T08:13:00;10.20;99.90
16635;DHT22;8431;52.458;9.998;2023-03-14T08:15:29;10.00;99.90
16635;DHT22;8431;52.458;9.998;2023-03-14T08:17:57;10.00;99.90
16635;DHT22;8431;52.458;9.998;2023-03-14T08:20:26;10.00;99.90
16635;DHT22;8431;52.458;9.998;2023-03-14T08:22:55;10.00;99.90
16635;DHT22;8431;52.458;9.998;2023-03-14T08:25:23;10.20;99.90
16635;DHT22;8431;52.458;9.998;2023-03-14T08:27:50;10.30;99.90
16635;DHT22;8431;52.458;9.998;2023-03-14T08:30:19;10.30;99.90
16635;DHT22;8431;52.458;9.998;2023-03-14T08:32:47;10.30;99.90
16635;DHT22;8431;52.458;9.998;2023-03-14T08:35:15;10.40;99.90
16635;DHT22;8431;52.458;9.998;2023-03-14T08:37:42;10.50;99.90
16635;DHT22;8431;52.458;9.998;2023-03-14T08:40:10;10.50;99.90
16635;DHT22;8431;52.458;9.998;2023-03-14T08:42:38;10.60;99.90
16635;DHT22;8431;52.458;9.998;2023-03-14T08:45:06;10.70;99.90
16635;DHT22;8431;52.458;9.998;2023-03-14T08:47:35;10.70;99.90
16635;DHT22;8431;52.458;9.998;2023-03-14T08:50:02;10.70;99.90
16635;DHT22;8431;52.458;9.998;2023-03-14T08:52:30;10.70;99.90
16635;DHT22;8431;52.458;9.998;2023-03-14T08:54:57;10.60;99.90
16635;DHT22;8431;52.458;9.998;2023-03-14T08:57:24;10.80;99.90
16635;DHT22;8431;52.458;9.998;2023-03-14T08:59:53;11.10;99.90
16635;DHT22;8431;52.458;9.998;2023-03-14T09:02:21;11.00;99.90
16635;DHT22;8431;52.458;9.998;2023-03-14T09:04:50;11.00;99.90
16635;DHT22;8431;52.458;9.998;2023-03-14T09:07:17;11.00;99.90
16635;DHT22;8431;52.458;9.998;2023-03-14T09:09:44;11.00;99.90
16635;DHT22;8431;52.458;9.998;2023-03-14T09:12:11;11.20;99.90
16635;DHT22;8431;52.458;9.998;2023-03-14T09:14:38;11.10;99.90
16635;DHT22;8431;52.458;9.998;2023-03-14T09:17:05;11.00;99.90
16635;DHT22;8431;52.458;9.998;2023-03-14T09:19:33;11.00;99.90
16635;DHT22;8431;52.458;9.998;2023-03-14T09:22:01;11.20;99.90
16635;DHT22;8431;52.458;9.998;2023-03-14T09:24:29;11.10;99.90
16635;DHT22;8431;52.458;9.998;2023-03-14T09:26:56;11.20;99.90
16635;DHT22;8431;52.458;9.998;2023-03-14T09:29:23;10.80;99.90
16635;DHT22;8431;52.458;9.998;2023-03-14T09:31:51;10.70;99.90
16635;DHT22;8431;52.458;9.998;2023-03-14T09:34:18;10.70;99.90
16635;DHT22;8431;52.458;9.998;2023-03-14T09:36:45;10.80;99.90
16635;DHT22;8431;52.458;9.998;2023-03-14T09:39:13;10.90;99.90
16635;DHT22;8431;52.458;9.998;2023-03-14T09:41:42;11.00;99.90
16635;DHT22;8431;52.458;9.998;2023-03-14T09:44:13;10.70;99.90
16635;DHT22;8431;52.458;9.998;2023-03-14T09:46:43;10.60;99.90
16635;DHT22;8431;52.458;9.998;2023-03-14T09:49:19;10.50;99.90
16635;DHT22;8431;52.458;9.998;2023-03-14T09:51:49;10.80;99.90
16635;DHT22;8431;52.458;9.998;2023-03-14T09:54:31;11.00;99.90
16635;DHT22;8431;52.458;9.998;2023-03-14T09:57:00;11.20;99.90
16635;DHT22;8431;52.458;9.998;2023-03-14T09:59:28;11.10;99.90
16635;DHT22;8431;52.458;9.998;2023-03-14T10:05:20;11.30;99.90
16635;DHT22;8431;52.458;9.998;2023-03-14T10:07:48;11.50;99.90
16635;DHT22;8431;52.458;9.998;2023-03-14T10:10:19;11.90;99.90
16635;DHT22;8431;52.458;9.998;2023-03-14T10:12:47;11.80;99.90
16635;DHT22;8431;52.458;9.998;2023-03-14T10:15:16;11.80;99.90
16635;DHT22;8431;52.458;9.998;2023-03-14T10:17:50;12.00;99.90
16635;DHT22;8431;52.458;9.998;2023-03-14T10:20:30;12.30;99.90
16635;DHT22;8431;52.458;9.998;2023-03-14T10:23:00;12.40;99.90
16635;DHT22;8431;52.458;9.998;2023-03-14T10:25:30;12.50;99.90
16635;DHT22;8431;52.458;9.998;2023-03-14T10:27:57;12.50;99.90
16635;DHT22;8431;52.458;9.998;2023-03-14T10:30:30;12.30;99.90
16635;DHT22;8431;52.458;9.998;2023-03-14T10:33:08;12.50;99.90
16635;DHT22;8431;52.458;9.998;2023-03-14T10:35:36;12.60;99.90
16635;DHT22;8431;52.458;9.998;2023-03-14T10:38:04;12.40;99.90
16635;DHT22;8431;52.458;9.998;2023-03-14T10:40:42;12.40;99.90
16635;DHT22;8431;52.458;9.998;2023-03-14T10:43:17;12.30;99.90
16635;DHT22;8431;52.458;9.998;2023-03-14T10:45:52;12.20;99.90
16635;DHT22;8431;52.458;9.998;2023-03-14T10:48:30;12.00;99.90
16635;DHT22;8431;52.458;9.998;2023-03-14T10:51:03;12.10;99.90
16635;DHT22;8431;52.458;9.998;2023-03-14T10:53:34;12.10;99.90
16635;DHT22;8431;52.458;9.998;2023-03-14T10:56:11;12.00;99.90
16635;DHT22;8431;52.458;9.998;2023-03-14T10:58:41;12.00;99.90
16635;DHT22;8431;52.458;9.998;2023-03-14T11:01:29;11.90;99.90
16635;DHT22;8431;52.458;9.998;2023-03-14T11:04:06;11.80;99.90
16635;DHT22;8431;52.458;9.998;2023-03-14T11:06:43;11.80;99.90
16635;DHT22;8431;52.458;9.998;2023-03-14T11:09:17;11.70;99.90
16635;DHT22;8431;52.458;9.998;2023-03-14T11:11:48;11.80;99.90
16635;DHT22;8431;52.458;9.998;2023-03-14T11:14:21;11.80;99.90
16635;DHT22;8431;52.458;9.998;2023-03-14T11:16:54;11.80;99.90
16635;DHT22;8431;52.458;9.998;2023-03-14T11:19:45;11.90;99.90
16635;DHT22;8431;52.458;9.998;2023-03-14T11:22:22;12.00;99.90
16635;DHT22;8431;52.458;9.998;2023-03-14T11:25:01;12.00;99.90
16635;DHT22;8431;52.458;9.998;2023-03-14T11:27:41;12.00;99.90
16635;DHT22;8431;52.458;9.998;2023-03-14T11:30:19;11.80;99.90
16635;DHT22;8431;52.458;9.998;2023-03-14T11:32:53;11.70;99.90
16635;DHT22;8431;52.458;9.998;2023-03-14T11:35:33;10.90;99.90
16635;DHT22;8431;52.458;9.998;2023-03-14T11:38:12;8.50;99.90
16635;DHT22;8431;52.458;9.998;2023-03-14T11:40:39;7.20;99.90
16635;DHT22;8431;52.458;9.998;2023-03-14T11:43:13;6.80;99.90
16635;DHT22;8431;52.458;9.998;2023-03-14T11:45:42;6.70;99.90
16635;DHT22;8431;52.458;9.998;2023-03-14T11:48:23;6.60;99.90
16635;DHT22;8431;52.458;9.998;2023-03-14T11:50:57;6.50;99.90
16635;DHT22;8431;52.458;9.998;2023-03-14T11:53:40;6.50;99.90
16635;DHT22;8431;52.458;9.998;2023-03-14T11:56:15;6.30;99.90
16635;DHT22;8431;52.458;9.998;2023-03-14T11:58:51;6.40;99.90
16635;DHT22;8431;52.458;9.998;2023-03-14T12:01:31;6.30;99.90
16635;DHT22;8431;52.458;9.998;2023-03-14T12:04:08;6.20;99.90
16635;DHT22;8431;52.458;9.998;2023-03-14T12:06:40;6.30;99.90
16635;DHT22;8431;52.458;9.998;2023-03-14T12:09:12;6.10;99.90
16635;DHT22;8431;52.458;9.998;2023-03-14T12:11:44;6.00;99.90
16635;DHT22;8431;52.458;9.998;2023-03-14T12:14:23;5.90;99.90
16635;DHT22;8431;52.458;9.998;2023-03-14T12:16:54;5.80;99.90
16635;DHT22;8431;52.458;9.998;2023-03-14T12:19:32;5.70;99.90
16635;DHT22;8431;52.458;9.998;2023-03-14T12:22:13;5.70;99.90
16635;DHT22;8431;52.458;9.998;2023-03-14T12:24:48;5.40;99.90
16635;DHT22;8431;52.458;9.998;2023-03-14T12:27:47;5.10;99.90
16635;DHT22;8431;52.458;9.998;2023-03-14T12:30:23;4.80;99.90
16635;DHT22;8431;52.458;9.998;2023-03-14T12:33:26;4.60;99.90
16635;DHT22;8431;52.458;9.998;2023-03-14T12:35:58;4.50;99.90
16635;DHT22;8431;52.458;9.998;2023-03-14T12:38:32;4.50;99.90
16635;DHT22;8431;52.458;9.998;2023-03-14T12:41:11;4.40;99.90
16635;DHT22;8431;52.458;9.998;2023-03-14T12:43:41;4.40;99.90
16635;DHT22;8431;52.458;9.998;2023-03-14T12:46:19;4.30;99.90
16635;DHT22;8431;52.458;9.998;2023-03-14T12:48:47;4.20;99.90
16635;DHT22;8431;52.458;9.998;2023-03-14T12:51:17;4.10;99.90
16635;DHT22;8431;52.458;9.998;2023-03-14T12:54:02;4.10;99.90
16635;DHT22;8431;52.458;9.998;2023-03-14T12:56:51;4.10;99.90
16635;DHT22;8431;52.458;9.998;2023-03-14T12:59:33;4.00;99.90
16635;DHT22;8431;52.458;9.998;2023-03-14T13:02:16;4.00;99.90
16635;DHT22;8431;52.458;9.998;2023-03-14T13:04:47;4.00;99.90
16635;DHT22;8431;52.458;9.998;2023-03-14T13:07:38;3.90;99.90
16635;DHT22;8431;52.458;9.998;2023-03-14T13:10:28;3.90;99.90
16635;DHT22;8431;52.458;9.998;2023-03-14T13:12:57;3.80;99.90
16635;DHT22;8431;52.458;9.998;2023-03-14T13:15:31;3.90;99.90
16635;DHT22;8431;52.458;9.998;2023-03-14T13:18:03;3.90;99.90
16635;DHT22;8431;52.458;9.998;2023-03-14T13:20:37;3.80;99.90
16635;DHT22;8431;52.458;9.998;2023-03-14T13:23:05;4.00;99.90
16635;DHT22;8431;52.458;9.998;2023-03-14T13:25:49;4.10;99.90
16635;DHT22;8431;52.458;9.998;2023-03-14T13:28:16;4.20;99.90
16635;DHT22;8431;52.458;9.998;2023-03-14T13:30:47;4.40;99.90
16635;DHT22;8431;52.458;9.998;2023-03-14T13:33:19;4.50;99.90
16635;DHT22;8431;52.458;9.998;2023-03-14T13:35:48;4.50;99.90
16635;DHT22;8431;52.458;9.998;2023-03-14T13:38:23;4.50;99.90
16635;DHT22;8431;52.458;9.998;2023-03-14T13:40:53;4.70;99.90
16635;DHT22;8431;52.458;9.998;2023-03-14T13:43:27;4.90;99.90
16635;DHT22;8431;52.458;9.998;2023-03-14T13:46:02;4.90;99.90
16635;DHT22;8431;52.458;9.998;2023-03-14T13:48:38;4.80;99.90
16635;DHT22;8431;52.458;9.998;2023-03-14T13:51:12;4.90;99.90
16635;DHT22;8431;52.458;9.998;2023-03-14T13:53:54;4.90;99.90
16635;DHT22;8431;52.458;9.998;2023-03-14T13:56:25;5.00;99.90
16635;DHT22;8431;52.458;9.998;2023-03-14T13:58:56;5.00;99.90
16635;DHT22;8431;52.458;9.998;2023-03-14T14:01:25;5.00;99.90
16635;DHT22;8431;52.458;9.998;2023-03-14T14:03:59;5.00;99.90
16635;DHT22;8431;52.458;9.998;2023-03-14T14:06:33;5.10;99.90
16635;DHT22;8431;52.458;9.998;2023-03-14T14:09:02;5.10;99.90
16635;DHT22;8431;52.458;9.998;2023-03-14T14:11:38;5.20;99.90
16635;DHT22;8431;52.458;9.998;2023-03-14T14:14:13;5.00;99.90
16635;DHT22;8431;52.458;9.998;2023-03-14T14:16:43;4.70;99.90
16635;DHT22;8431;52.458;9.998;2023-03-14T14:19:14;4.10;99.90
16635;DHT22;8431;52.458;9.998;2023-03-14T14:21:42;4.00;99.90
16635;DHT22;8431;52.458;9.998;2023-03-14T14:24:12;4.00;99.90
16635;DHT22;8431;52.458;9.998;2023-03-14T14:26:41;4.10;99.90
16635;DHT22;8431;52.458;9.998;2023-03-14T14:29:23;4.20;99.90
16635;DHT22;8431;52.458;9.998;2023-03-14T14:32:00;4.40;99.90
16635;DHT22;8431;52.458;9.998;2023-03-14T14:34:28;4.50;99.90
16635;DHT22;8431;52.458;9.998;2023-03-14T14:36:55;4.50;99.90
16635;DHT22;8431;52.458;9.998;2023-03-14T14:39:25;4.70;99.90
16635;DHT22;8431;52.458;9.998;2023-03-14T14:41:54;4.80;99.90
16635;DHT22;8431;52.458;9.998;2023-03-14T14:44:27;4.80;99.90
16635;DHT22;8431;52.458;9.998;2023-03-14T14:46:55;4.90;99.90
16635;DHT22;8431;52.458;9.998;2023-03-14T14:49:33;4.90;99.90
16635;DHT22;8431;52.458;9.998;2023-03-14T14:52:12;5.00;99.90
16635;DHT22;8431;52.458;9.998;2023-03-14T14:54:44;5.00;99.90
16635;DHT22;8431;52.458;9.998;2023-03-14T14:57:18;5.00;99.90
16635;DHT22;8431;52.458;9.998;2023-03-14T14:59:48;5.00;99.90
16635;DHT22;8431;52.458;9.998;2023-03-14T15:02:29;4.90;99.90
16635;DHT22;8431;52.458;9.998;2023-03-14T15:04:58;4.90;99.90
16635;DHT22;8431;52.458;9.998;2023-03-14T15:07:25;4.80;99.90
16635;DHT22;8431;52.458;9.998;2023-03-14T15:09:52;4.80;99.90
16635;DHT22;8431;52.458;9.998;2023-03-14T15:12:19;4.80;99.90
16635;DHT22;8431;52.458;9.998;2023-03-14T15:14:47;4.80;99.90
16635;DHT22;8431;52.458;9.998;2023-03-14T15:17:16;4.70;99.90
16635;DHT22;8431;52.458;9.998;2023-03-14T15:19:43;4.70;99.90
16635;DHT22;8431;52.458;9.998;2023-03-14T15:22:13;4.70;99.90
16635;DHT22;8431;52.458;9.998;2023-03-14T15:24:40;4.70;99.90
16635;DHT22;8431;52.458;9.998;2023-03-14T15:27:13;4.80;99.90
16635;DHT22;8431;52.458;9.998;2023-03-14T15:29:41;4.90;99.90
16635;DHT22;8431;52.458;9.998;2023-03-14T15:32:11;4.90;99.90
16635;DHT22;8431;52.458;9.998;2023-03-14T15:34:39;5.00;99.90
16635;DHT22;8431;52.458;9.998;2023-03-14T15:37:10;5.00;99.90
16635;DHT22;8431;52.458;9.998;2023-03-14T15:39:39;5.00;99.90
16635;DHT22;8431;52.458;9.998;2023-03-14T15:42:06;5.00;99.90
16635;DHT22;8431;52.458;9.998;2023-03-14T15:44:34;5.10;99.90
16635;DHT22;8431;52.458;9.998;2023-03-14T15:47:01;5.10;99.90
16635;DHT22;8431;52.458;9.998;2023-03-14T15:49:29;5.20;99.90
16635;DHT22;8431;52.458;9.998;2023-03-14T15:51:56;5.30;99.90
16635;DHT22;8431;52.458;9.998;2023-03-14T15:54:23;5.30;99.90
16635;DHT22;8431;52.458;9.998;2023-03-14T15:56:56;5.40;99.90
16635;DHT22;8431;52.458;9.998;2023-03-14T15:59:23;5.40;99.90
16635;DHT22;8431;52.458;9.998;2023-03-14T16:01:51;5.60;99.90
16635;DHT22;8431;52.458;9.998;2023-03-14T16:04:18;5.60;99.90
16635;DHT22;8431;52.458;9.998;2023-03-14T16:06:45;5.60;99.90
16635;DHT22;8431;52.458;9.998;2023-03-14T16:09:12;5.50;99.90
16635;DHT22;8431;52.458;9.998;2023-03-14T16:11:40;5.40;99.90
16635;DHT22;8431;52.458;9.998;2023-03-14T16:14:08;5.30;99.90
16635;DHT22;8431;52.458;9.998;2023-03-14T16:16:35;5.20;99.90